createdAt,value
2019-03-10T00:01:41.033Z,100145.70
2019-03-10T00:04:11.424Z,100145.78
2019-03-10T00:06:41.997Z,100137.05
2019-03-10T00:09:12.407Z,100134.86
2019-03-10T00:11:42.860Z,100142.14
2019-03-10T00:14:14.221Z,100133.93
2019-03-10T00:16:44.665Z,100142.67
2019-03-10T00:19:15.111Z,100132.44
2019-03-10T00:21:45.526Z,100142.16
2019-03-10T00:24:15.925Z,100136.73
2019-03-10T00:26:46.373Z,100132.06
2019-03-10T00:29:16.804Z,100136.00
2019-03-10T00:31:47.256Z,100133.00
2019-03-10T00:34:17.661Z,100131.02
2019-03-10T00:36:48.150Z,100128.22
2019-03-10T00:39:30.251Z,100141.03
2019-03-10T00:42:26.291Z,100163.36
2019-03-10T00:45:25.097Z,100193.06
2019-03-10T00:47:58.449Z,100180.80
2019-03-10T00:50:50.001Z,100183.19
2019-03-10T00:53:20.490Z,100172.79
2019-03-10T00:55:50.875Z,100168.65
2019-03-10T00:58:21.321Z,100149.91
2019-03-10T01:00:52.609Z,100149.59
2019-03-10T01:03:23.143Z,100158.05
2019-03-10T01:05:53.567Z,100162.53
2019-03-10T01:08:24.144Z,100154.48
2019-03-10T01:10:54.653Z,100155.02
2019-03-10T01:13:25.518Z,100156.07
2019-03-10T02:14:15.564Z,100083.59
2019-03-10T02:16:46.039Z,100084.59
2019-03-10T02:19:16.509Z,100083.52
2019-03-10T02:21:46.913Z,100068.02
2019-03-10T02:24:23.798Z,100059.77
2019-03-10T02:26:49.534Z,100050.23
2019-03-10T02:29:19.979Z,100042.64
2019-03-10T02:31:50.411Z,100038.31
2019-03-10T02:34:20.866Z,100035.36
2019-03-10T02:36:51.492Z,100023.32
2019-03-10T02:39:21.894Z,100024.30
2019-03-10T02:41:52.351Z,100018.54
2019-03-10T02:44:22.770Z,100013.66
2019-03-10T02:46:53.242Z,99999.55
2019-03-10T02:49:23.645Z,99997.00
2019-03-10T02:51:54.092Z,99991.31
2019-03-10T02:54:24.692Z,99991.68
2019-03-10T02:56:55.124Z,99995.39
2019-03-10T02:59:25.528Z,99996.13
2019-03-10T03:02:01.588Z,99998.80
2019-03-10T03:04:32.035Z,100000.94
2019-03-10T03:07:02.469Z,99997.28
2019-03-10T03:09:32.872Z,100000.37
2019-03-10T03:12:03.326Z,100003.45
2019-03-10T03:14:33.743Z,100002.80
2019-03-10T03:17:04.328Z,100002.95
2019-03-10T03:19:36.091Z,99995.05
2019-03-10T03:22:06.571Z,99990.16
2019-03-10T03:24:37.010Z,100003.50
2019-03-10T03:27:07.488Z,99999.03
2019-03-10T03:29:37.812Z,99980.99
2019-03-10T03:32:08.253Z,99981.73
2019-03-10T03:34:38.664Z,99976.66
2019-03-10T03:37:09.421Z,99978.44
2019-03-10T03:39:39.854Z,99982.08
2019-03-10T03:42:10.359Z,99984.69
2019-03-10T03:44:40.753Z,99983.84
2019-03-10T03:47:11.169Z,99981.77
2019-03-10T03:49:41.563Z,99986.68
2019-03-10T03:52:12.029Z,99990.53
2019-03-10T03:54:42.376Z,99993.31
2019-03-10T03:57:12.780Z,99988.23
2019-03-10T03:59:43.187Z,99985.23
2019-03-10T04:02:15.228Z,99990.94
2019-03-10T04:04:45.613Z,99989.48
2019-03-10T04:07:16.104Z,99998.91
2019-03-10T04:09:46.546Z,99991.41
2019-03-10T04:12:17.051Z,99989.68
2019-03-10T04:14:47.469Z,99984.69
2019-03-10T04:17:18.016Z,99988.77
2019-03-10T04:19:48.426Z,99983.86
2019-03-10T04:22:18.905Z,99979.71
2019-03-10T04:24:49.326Z,99980.73
2019-03-10T04:27:19.722Z,99973.14
2019-03-10T04:29:50.141Z,99980.52
2019-03-10T04:32:20.681Z,99976.80
2019-03-10T04:34:51.145Z,99970.85
2019-03-10T04:37:21.569Z,99967.20
2019-03-10T04:39:52.053Z,99966.06
2019-03-10T04:42:22.470Z,99966.80
2019-03-10T04:44:52.939Z,99957.63
2019-03-10T04:47:23.350Z,99963.90
2019-03-10T04:49:53.773Z,99951.79
2019-03-10T04:52:24.299Z,99955.26
2019-03-10T04:55:08.359Z,99956.94
2019-03-10T04:57:40.350Z,99962.43
2019-03-10T05:00:10.791Z,99958.69
2019-03-10T05:02:41.228Z,99958.91
2019-03-10T05:05:11.694Z,99960.77
2019-03-10T05:07:42.122Z,99966.48
2019-03-10T05:10:12.621Z,99969.50
2019-03-10T05:12:43.008Z,99966.38
2019-03-10T05:15:14.047Z,99971.05
2019-03-10T05:17:44.785Z,99967.72
2019-03-10T05:20:15.153Z,99968.86
2019-03-10T05:22:51.674Z,99965.88
2019-03-10T05:25:28.943Z,99968.87
2019-03-10T05:28:04.184Z,99963.89
2019-03-10T05:30:34.827Z,99961.88
2019-03-10T05:33:05.980Z,99963.00
2019-03-10T05:35:36.407Z,99953.13
2019-03-10T05:38:06.833Z,99950.50
2019-03-10T05:40:37.252Z,99949.69
2019-03-10T05:43:07.730Z,99954.64
2019-03-10T05:45:38.176Z,99949.73
2019-03-10T05:48:08.577Z,99949.84
2019-03-10T05:50:39.041Z,99946.09
2019-03-10T05:53:09.408Z,99934.92
2019-03-10T05:55:39.811Z,99937.63
2019-03-10T05:58:10.157Z,99936.56
2019-03-10T06:00:43.041Z,99934.35
2019-03-10T06:03:12.593Z,99933.64
2019-03-10T06:05:43.009Z,99929.18
2019-03-10T06:08:13.445Z,99924.00
2019-03-10T06:10:43.769Z,99927.64
2019-03-10T06:13:14.223Z,99924.61
2019-03-10T06:15:44.670Z,99920.20
2019-03-10T06:20:55.508Z,99927.52
2019-03-10T06:23:25.929Z,99921.21
2019-03-10T06:25:56.414Z,99923.25
2019-03-10T06:28:27.243Z,99913.91
2019-03-10T06:30:57.704Z,99917.14
2019-03-10T06:33:28.101Z,99920.09
2019-03-10T06:35:58.551Z,99907.70
2019-03-10T06:38:29.021Z,99912.31
2019-03-10T06:40:59.483Z,99917.11
2019-03-10T06:43:29.916Z,99907.33
2019-03-10T06:46:00.434Z,99904.16
2019-03-10T06:48:30.880Z,99900.02
2019-03-10T06:51:01.352Z,99896.52
2019-03-10T06:53:31.749Z,99890.04
2019-03-10T06:56:03.739Z,99888.12
2019-03-10T06:58:34.126Z,99884.66
2019-03-10T07:01:04.588Z,99875.47
2019-03-10T07:03:34.979Z,99869.77
2019-03-10T07:06:05.417Z,99871.13
2019-03-10T07:08:35.814Z,99866.41
2019-03-10T07:11:06.272Z,99858.06
2019-03-10T07:13:36.687Z,99851.36
2019-03-10T07:16:07.131Z,99851.94
2019-03-10T07:18:37.892Z,99846.05
2019-03-10T07:21:08.293Z,99840.39
2019-03-10T07:23:38.694Z,99843.02
2019-03-10T07:26:09.097Z,99849.92
2019-03-10T07:28:44.820Z,99846.72
2019-03-10T07:31:31.094Z,99851.28
2019-03-10T07:34:18.203Z,99851.28
2019-03-10T07:37:05.259Z,99840.56
2019-03-10T07:39:46.049Z,99839.11
2019-03-10T07:42:21.110Z,99836.84
2019-03-10T07:45:10.051Z,99839.50
2019-03-10T07:47:54.167Z,99845.97
2019-03-10T07:50:35.390Z,99832.38
2019-03-10T07:53:23.666Z,99832.38
2019-03-10T07:56:11.566Z,99834.62
2019-03-10T07:58:43.677Z,99822.12
2019-03-10T08:01:19.221Z,99822.12
2019-03-10T08:03:54.152Z,99829.00
2019-03-10T08:06:35.324Z,99835.51
2019-03-10T08:09:15.818Z,99841.17
2019-03-10T08:12:04.295Z,99845.84
2019-03-10T08:14:48.291Z,99830.80
2019-03-10T08:17:35.791Z,99829.48
2019-03-10T08:20:08.553Z,99829.48
2019-03-10T08:22:40.564Z,99828.41
2019-03-10T08:25:15.578Z,99827.16
2019-03-10T08:28:00.851Z,99825.53
2019-03-10T08:30:30.267Z,99826.17
2019-03-10T08:33:21.321Z,99827.02
2019-03-10T08:35:59.358Z,99828.28
2019-03-10T08:38:51.822Z,99825.06
2019-03-10T08:41:23.782Z,99812.95
2019-03-10T08:44:10.830Z,99810.87
2019-03-10T08:46:57.876Z,99806.82
2019-03-10T08:49:45.147Z,99804.22
2019-03-10T08:52:18.611Z,99798.76
2019-03-10T08:54:50.646Z,99794.23
2019-03-10T08:57:25.334Z,99787.42
2019-03-10T09:00:06.396Z,99781.34
2019-03-10T09:02:41.208Z,99775.44
2019-03-10T09:05:19.615Z,99779.05
2019-03-10T09:07:51.675Z,99772.79
2019-03-10T09:10:39.847Z,99780.86
2019-03-10T09:13:14.539Z,99775.44
2019-03-10T09:15:52.638Z,99779.91
2019-03-10T09:18:27.617Z,99771.80
2019-03-10T09:20:59.645Z,99777.86
2019-03-10T09:23:37.458Z,99771.23
2019-03-10T09:26:09.485Z,99772.05
2019-03-10T09:28:57.814Z,99763.20
2019-03-10T09:31:41.749Z,99759.88
2019-03-10T09:34:14.761Z,99751.53
2019-03-10T09:37:01.820Z,99735.51
2019-03-10T09:39:39.470Z,99731.44
2019-03-10T09:42:11.462Z,99724.27
2019-03-10T09:44:52.579Z,99717.92
2019-03-10T09:47:39.548Z,99719.13
2019-03-10T09:50:31.314Z,99705.23
2019-03-10T09:53:03.368Z,99704.36
2019-03-10T09:55:51.470Z,99698.76
2019-03-10T09:58:29.586Z,99690.90
2019-03-10T10:01:07.558Z,99689.37
2019-03-10T10:03:45.579Z,99686.72
2019-03-10T10:06:17.550Z,99682.00
2019-03-10T10:08:52.361Z,99688.00
2019-03-10T10:11:40.741Z,99678.14
2019-03-10T10:14:18.590Z,99671.35
2019-03-10T10:16:50.556Z,99668.91
2019-03-10T10:19:28.326Z,99651.37
2019-03-10T10:22:03.271Z,99644.34
2019-03-10T10:24:35.300Z,99630.34
2019-03-10T10:27:13.252Z,99629.73
2019-03-10T10:29:51.260Z,99620.42
2019-03-10T10:32:23.238Z,99615.45
2019-03-10T10:34:58.338Z,99604.80
2019-03-10T10:37:46.704Z,99595.77
2019-03-10T10:40:18.735Z,99595.18
2019-03-10T10:42:50.704Z,99584.42
2019-03-10T10:45:23.055Z,99579.16
2019-03-10T10:48:11.441Z,99576.70
2019-03-10T10:50:49.592Z,99563.50
2019-03-10T10:53:37.741Z,99558.13
2019-03-10T10:56:25.100Z,99551.64
2019-03-10T10:58:57.070Z,99536.25
2019-03-10T11:01:44.024Z,99531.90
2019-03-10T11:04:16.016Z,99522.86
2019-03-10T11:06:51.027Z,99523.51
2019-03-10T11:09:23.027Z,99508.77
2019-03-10T11:11:55.067Z,99500.80
2019-03-10T11:14:43.327Z,99496.71
2019-03-10T11:17:31.854Z,99487.36
2019-03-10T11:20:09.905Z,99491.29
2019-03-10T11:22:44.513Z,99482.13
2019-03-10T11:25:19.471Z,99479.14
2019-03-10T11:27:54.499Z,99474.76
2019-03-10T11:30:26.460Z,99465.72
2019-03-10T11:33:07.305Z,99463.98
2019-03-10T11:35:57.847Z,99462.59
2019-03-10T11:38:29.870Z,99472.92
2019-03-10T11:41:18.014Z,99461.48
2019-03-10T11:43:50.051Z,99454.80
2019-03-10T11:46:22.023Z,99448.33
2019-03-10T11:48:57.018Z,99432.70
2019-03-10T11:51:34.731Z,99435.71
2019-03-10T11:54:09.742Z,99433.25
2019-03-10T11:56:44.696Z,99420.92
2019-03-10T11:59:16.720Z,99422.83
2019-03-10T12:01:48.687Z,99414.05
2019-03-10T12:04:29.896Z,99414.34
2019-03-10T12:07:13.812Z,99417.95
2019-03-10T12:09:44.250Z,99403.56
2019-03-10T12:12:14.665Z,99403.64
2019-03-10T12:14:45.113Z,99385.23
2019-03-10T12:17:15.519Z,99387.22
2019-03-10T12:19:45.901Z,99379.00
2019-03-10T12:22:16.285Z,99374.63
2019-03-10T12:24:46.735Z,99351.63
2019-03-10T12:27:17.062Z,99345.90
2019-03-10T12:29:47.528Z,99342.03
2019-03-10T12:32:17.893Z,99341.16
2019-03-10T12:34:48.282Z,99336.81
2019-03-10T12:37:18.881Z,99329.19
2019-03-10T12:39:49.264Z,99319.59
2019-03-10T12:42:19.696Z,99315.78
2019-03-10T12:44:50.017Z,99311.41
2019-03-10T12:47:20.457Z,99306.48
2019-03-10T12:49:50.844Z,99308.12
2019-03-10T12:52:21.277Z,99298.83
2019-03-10T12:54:51.652Z,99301.84
2019-03-10T12:57:22.130Z,99292.24
2019-03-10T12:59:52.518Z,99294.72
2019-03-10T13:02:22.989Z,99285.41
2019-03-10T13:04:53.402Z,99285.11
2019-03-10T13:07:23.842Z,99278.83
2019-03-10T13:09:54.238Z,99279.61
2019-03-10T13:12:24.696Z,99281.80
2019-03-10T13:14:59.310Z,99280.98
2019-03-10T13:17:27.262Z,99273.86
2019-03-10T13:19:59.213Z,99273.58
2019-03-10T13:22:29.666Z,99277.95
2019-03-10T13:25:00.055Z,99296.11
2019-03-10T13:27:30.542Z,99289.01
2019-03-10T13:30:01.900Z,99348.84
2019-03-10T13:32:32.718Z,99343.80
2019-03-10T13:35:03.143Z,99348.62
2019-03-10T13:37:33.675Z,99346.70
2019-03-10T13:40:05.901Z,99342.12
2019-03-10T13:42:36.382Z,99351.80
2019-03-10T13:45:09.706Z,99349.19
2019-03-10T13:47:40.162Z,99355.55
2019-03-10T13:50:12.876Z,99354.42
2019-03-10T13:52:43.329Z,99344.16
2019-03-10T13:55:13.779Z,99351.93
2019-03-10T13:57:44.254Z,99356.24
2019-03-10T14:00:25.039Z,99363.09
2019-03-10T14:02:55.570Z,99357.38
2019-03-10T14:05:25.954Z,99357.02
2019-03-10T14:07:56.400Z,99349.23
2019-03-10T14:10:26.872Z,99339.20
2019-03-10T14:12:57.367Z,99337.97
2019-03-10T14:15:27.768Z,99335.61
2019-03-10T14:17:58.219Z,99337.70
2019-03-10T14:20:28.619Z,99328.06
2019-03-10T14:22:59.086Z,99320.90
2019-03-10T14:25:29.476Z,99300.52
2019-03-10T14:27:59.957Z,99306.69
2019-03-10T14:30:30.370Z,99312.41
2019-03-10T14:33:00.863Z,99313.42
2019-03-10T14:35:31.267Z,99326.12
2019-03-10T14:38:01.788Z,99320.94
2019-03-10T14:40:32.067Z,99337.80
2019-03-10T14:43:02.384Z,99339.73
2019-03-10T14:45:32.684Z,99362.87
2019-03-10T14:48:03.049Z,99371.92
2019-03-10T14:50:33.333Z,99377.06
2019-03-10T14:53:04.744Z,99380.89
2019-03-10T14:55:35.292Z,99395.38
2019-03-10T14:58:05.566Z,99381.80
2019-03-10T15:00:35.876Z,99396.56
2019-03-10T15:03:06.322Z,99392.44
2019-03-10T15:05:36.753Z,99402.31
2019-03-10T15:08:07.255Z,99411.97
2019-03-10T15:10:37.734Z,99400.99
2019-03-10T15:13:08.209Z,99418.17
2019-03-10T15:15:38.725Z,99408.73
2019-03-10T15:18:09.164Z,99417.75
2019-03-10T15:20:39.609Z,99408.55
2019-03-10T15:23:10.073Z,99406.27
2019-03-10T15:25:40.464Z,99412.89
2019-03-10T15:28:10.907Z,99415.63
2019-03-10T15:30:41.333Z,99426.60
2019-03-10T15:33:11.895Z,99426.47
2019-03-10T15:35:42.348Z,99427.63
2019-03-10T15:38:12.920Z,99443.58
2019-03-10T15:40:43.358Z,99439.63
2019-03-10T15:43:13.817Z,99444.63
2019-03-10T15:45:44.686Z,99441.82
2019-03-10T15:48:15.188Z,99446.50
2019-03-10T15:50:45.580Z,99440.80
2019-03-10T15:53:16.032Z,99449.27
2019-03-10T15:55:46.458Z,99447.70
2019-03-10T15:58:16.922Z,99455.17
2019-03-10T16:00:47.350Z,99461.92
2019-03-10T16:03:17.851Z,99468.33
2019-03-10T16:05:48.284Z,99464.70
2019-03-10T16:08:18.813Z,99453.27
2019-03-10T16:10:49.204Z,99462.77
2019-03-10T16:13:19.666Z,99464.47
2019-03-10T16:15:50.057Z,99464.59
2019-03-10T16:18:20.496Z,99472.67
2019-03-10T16:20:50.893Z,99467.67
2019-03-10T16:23:22.779Z,99475.42
2019-03-10T16:25:53.196Z,99476.95
2019-03-10T16:28:23.624Z,99483.70
2019-03-10T16:30:54.003Z,99514.02
2019-03-10T16:33:25.499Z,99524.61
2019-03-10T16:35:56.059Z,99526.78
2019-03-10T16:38:26.582Z,99524.18
2019-03-10T16:40:56.914Z,99525.66
2019-03-10T16:43:27.355Z,99532.81
2019-03-10T16:45:57.757Z,99534.38
2019-03-10T16:48:28.267Z,99535.63
2019-03-10T16:50:58.674Z,99527.83
2019-03-10T16:53:29.062Z,99540.17
2019-03-10T16:56:03.110Z,99526.59
2019-03-10T16:58:31.648Z,99541.84
2019-03-10T17:01:02.070Z,99536.84
2019-03-10T17:03:32.528Z,99544.41
2019-03-10T17:06:02.838Z,99546.16
2019-03-10T17:08:33.269Z,99536.88
2019-03-10T17:11:03.662Z,99546.34
2019-03-10T17:13:34.112Z,99547.16
2019-03-10T17:16:04.440Z,99545.59
2019-03-10T17:18:34.892Z,99553.91
2019-03-10T17:21:05.317Z,99548.08
2019-03-10T17:23:35.796Z,99558.96
2019-03-10T17:26:06.210Z,99553.23
2019-03-10T17:28:36.646Z,99565.36
2019-03-10T17:31:06.957Z,99570.48
2019-03-10T17:33:37.323Z,99574.75
2019-03-10T17:36:07.727Z,99580.76
2019-03-10T17:38:38.176Z,99581.19
2019-03-10T17:41:08.496Z,99588.58
2019-03-10T17:43:38.870Z,99595.47
2019-03-10T17:46:09.286Z,99600.55
2019-03-10T17:48:39.655Z,99594.33
2019-03-10T17:51:09.958Z,99601.09
2019-03-10T17:53:41.956Z,99602.03
2019-03-10T17:56:12.432Z,99596.84
2019-03-10T17:58:42.849Z,99606.83
2019-03-10T18:01:13.187Z,99604.84
2019-03-10T18:03:43.539Z,99613.59
2019-03-10T18:06:13.863Z,99615.36
2019-03-10T18:08:44.218Z,99602.69
2019-03-10T18:11:14.526Z,99614.30
2019-03-10T18:13:44.871Z,99619.70
2019-03-10T18:16:15.276Z,99622.74
2019-03-10T18:18:45.741Z,99620.78
2019-03-10T18:21:16.149Z,99619.43
2019-03-10T18:23:46.614Z,99626.19
2019-03-10T18:26:17.001Z,99623.98
2019-03-10T18:28:47.462Z,99625.77
2019-03-10T18:31:17.866Z,99622.00
2019-03-10T18:33:48.332Z,99631.24
2019-03-10T18:36:18.728Z,99623.67
2019-03-10T18:38:49.167Z,99624.81
2019-03-10T18:41:19.453Z,99620.65
2019-03-10T18:43:49.795Z,99626.95
2019-03-10T18:46:20.078Z,99630.61
2019-03-10T18:48:50.434Z,99628.00
2019-03-10T18:51:20.764Z,99627.18
2019-03-10T18:53:51.108Z,99634.45
2019-03-10T18:56:21.426Z,99639.97
2019-03-10T18:58:51.784Z,99637.75
2019-03-10T19:01:22.047Z,99647.60
2019-03-10T19:03:52.504Z,99637.61
2019-03-10T19:06:22.871Z,99649.17
2019-03-10T19:08:53.273Z,99650.09
2019-03-10T19:11:23.689Z,99654.05
2019-03-10T19:13:54.160Z,99652.38
2019-03-10T19:16:24.548Z,99648.22
2019-03-10T19:18:54.992Z,99646.76
2019-03-10T19:21:25.667Z,99661.44
2019-03-10T19:23:56.120Z,99655.61
2019-03-10T19:26:26.413Z,99664.44
2019-03-10T19:28:56.849Z,99670.05
2019-03-10T19:31:27.151Z,99672.03
2019-03-10T19:33:57.505Z,99669.94
2019-03-10T19:36:27.828Z,99675.23
2019-03-10T19:38:58.444Z,99666.33
2019-03-10T19:41:28.818Z,99669.55
2019-03-10T19:43:59.318Z,99669.34
2019-03-10T19:46:29.791Z,99664.88
2019-03-10T19:49:00.548Z,99663.31
2019-03-10T19:51:30.887Z,99668.64
2019-03-10T19:54:01.259Z,99667.06
2019-03-10T19:56:31.559Z,99655.04
2019-03-10T19:59:01.904Z,99663.14
2019-03-10T20:01:32.194Z,99663.47
2019-03-10T20:04:02.567Z,99666.48
2019-03-10T20:06:32.867Z,99641.02
2019-03-10T20:09:04.846Z,99636.69
2019-03-10T20:11:35.145Z,99636.25
2019-03-10T20:14:05.493Z,99631.52
2019-03-10T20:16:35.795Z,99639.19
2019-03-10T20:19:06.139Z,99631.70
2019-03-10T20:21:36.574Z,99621.84
2019-03-10T20:24:07.063Z,99636.59
2019-03-10T20:26:37.500Z,99640.45
2019-03-10T20:29:07.949Z,99638.36
2019-03-10T20:31:38.316Z,99642.70
2019-03-10T20:34:08.689Z,99641.67
2019-03-10T20:36:39.634Z,99634.00
2019-03-10T20:39:10.296Z,99631.52
2019-03-10T20:41:40.701Z,99625.30
2019-03-10T20:44:11.181Z,99625.48
2019-03-10T20:46:41.607Z,99618.33
2019-03-10T20:49:12.082Z,99629.86
2019-03-10T20:51:42.494Z,99616.66
2019-03-10T20:54:12.846Z,99623.50
2019-03-10T20:56:43.158Z,99627.25
2019-03-10T20:59:13.519Z,99632.73
2019-03-10T21:01:43.828Z,99628.61
2019-03-10T21:04:14.231Z,99635.44
2019-03-10T21:06:44.646Z,99644.34
2019-03-10T21:09:15.082Z,99660.20
2019-03-10T21:11:45.453Z,99668.20
2019-03-10T21:14:15.841Z,99667.21
2019-03-10T21:16:46.238Z,99675.01
2019-03-10T21:19:16.733Z,99671.16
2019-03-10T21:21:47.174Z,99682.43
2019-03-10T21:24:17.583Z,99678.97
2019-03-10T21:26:47.906Z,99685.22
2019-03-10T21:29:18.262Z,99685.27
2019-03-10T21:31:48.556Z,99696.82
2019-03-10T21:34:18.939Z,99696.73
2019-03-10T21:36:49.232Z,99698.87
2019-03-10T21:39:20.024Z,99691.54
2019-03-10T21:41:50.338Z,99699.62
2019-03-10T21:44:26.509Z,99693.41
2019-03-10T21:46:52.710Z,99693.48
2019-03-10T21:49:23.075Z,99690.16
2019-03-10T21:51:53.399Z,99692.22
2019-03-10T21:54:23.771Z,99689.07
2019-03-10T21:56:54.057Z,99691.95
2019-03-10T21:59:24.414Z,99700.50
2019-03-10T22:01:54.732Z,99711.17
2019-03-10T22:04:25.089Z,99714.26
2019-03-10T22:06:55.393Z,99717.88
2019-03-10T22:09:25.771Z,99729.19
2019-03-10T22:11:56.088Z,99723.23
2019-03-10T22:14:28.631Z,99732.86
2019-03-10T22:16:58.460Z,99739.94
2019-03-10T22:19:28.841Z,99738.22
2019-03-10T22:21:59.155Z,99744.56
2019-03-10T22:24:29.557Z,99737.79
2019-03-10T22:26:59.894Z,99737.55
2019-03-10T22:29:30.235Z,99735.67
2019-03-10T22:32:00.580Z,99743.94
2019-03-10T22:34:30.933Z,99760.28
2019-03-10T22:37:01.226Z,99751.63
2019-03-10T22:39:31.761Z,99759.90
2019-03-10T22:42:02.073Z,99765.86
2019-03-10T22:44:32.433Z,99770.27
2019-03-10T22:47:02.754Z,99777.97
2019-03-10T22:49:33.106Z,99780.91
2019-03-10T22:52:03.413Z,99781.92
2019-03-10T22:54:33.781Z,99798.25
2019-03-10T22:57:04.082Z,99803.23
2019-03-10T22:59:34.455Z,99806.63
2019-03-10T23:02:04.771Z,99807.39
2019-03-10T23:04:35.126Z,99776.72
2019-03-10T23:07:05.514Z,99807.08
2019-03-10T23:09:36.012Z,99799.94
2019-03-10T23:12:06.413Z,99801.48
2019-03-10T23:14:36.879Z,99800.25
2019-03-10T23:17:07.208Z,99801.48
2019-03-10T23:19:37.679Z,99799.43
2019-03-10T23:22:08.082Z,99796.69
2019-03-10T23:24:38.547Z,99805.51
2019-03-10T23:27:08.961Z,99807.64
2019-03-10T23:29:39.401Z,99812.93
2019-03-10T23:32:09.848Z,99813.70
2019-03-10T23:34:40.295Z,99809.23
2019-03-10T23:37:10.716Z,99815.12
2019-03-10T23:39:41.274Z,99808.02
2019-03-10T23:42:11.724Z,99808.09
2019-03-10T23:47:40.691Z,99808.12
2019-03-10T23:50:15.760Z,99800.71
2019-03-10T23:52:46.452Z,99791.67
2019-03-10T23:55:16.888Z,99788.92
2019-03-10T23:57:47.844Z,99800.88
